AirNav   Air Wisconsin Airman Trainee
 
 587 users online  

CO90 USAF Academy Bullseye Auxiliary Airfield
Ellicott, Colorado, USA

GOING TO ELLICOTT?


FAA INFORMATION EFFECTIVE 31 JANUARY 2019

Location

FAA Identifier: CO90
Lat/Long: 38-45-31.0000N / 104-18-02.0000W
38-45.516667N / 104-18.033333W
38.7586111 / -104.3005556
(estimated)
Elevation: 6036 ft. / 1840 m (estimated)
Variation: 11E (1990)
From city: 6 miles N of ELLICOTT, CO
Time zone: UTC -7 (UTC -6 during Daylight Saving Time)
Zip code: 80864

Airport Operations

Airport use: Private use. Permission required prior to landing
Activation date: 12/1990
Control tower: no
ARTCC: DENVER CENTER
FSS: DENVER FLIGHT SERVICE STATION
Attendance: MON-FRI SR-SS, ALL SAT 1430-2130Z
CLSD SUN & HOL.
1430Z OR SR (WHICHEVER IS LATER)-2130Z DUR VFR.
Wind indicator: yes
Segmented circle: no

Airport Communications

UNICOM: 122.725
WX ASOS: 125.0 (719-637-9696)
WX AWOS-3PT at FLY (17 nm NW): 118.450 (719-683-5371)
WX ASOS at COS (19 nm W): 125.0 (719-637-9696)

Nearby radio navigation aids

VOR radial/distance  VOR name  Freq  Var
BRKr118/19.1BLACK FOREST VOR/DME112.5008E
FCSr066/21.9BUTTS VOR/DME108.8012E
PUBr004/28.5PUEBLO VORTAC116.7008E
HGOr257/32.0HUGO VOR/DME112.1007E

 
NDB name  Hdg/Dist  Freq  Var  ID
IRONHORSE065/21.733512EIHS .. .... ...

Airport Services

Runway Information

Runway 17/35

Dimensions: 3500 x 75 ft. / 1067 x 23 m
Surface: asphalt
Weight bearing capacity: 
PCN 30 /F/B/W/T
RUNWAY 17  RUNWAY 35
Traffic pattern: leftleft

Airport Ownership and Management from official FAA records

Ownership: U.S. Air Force
Owner: US AIR FORCE ACADEMY
US AIR FORCE ACADEMY
COLORADO SPRINGS, CO 80840
Manager: CHIEF AIRFIELD MANAGEMENT
U S A F ACADEMY CO
COLORADO SPRINGS, CO 80840
Phone 719-472-1665

Additional Remarks

MISC: "OVRN ARE 200'. REMOTE WX BRIEFING SVC AVBL DAVIS-MONTHAN AFB, 25 OWS DSN 228-6598 C520-228-6598 TOLL FREE 877-451-8367."
CAUTION: IN THE VICINITY OF BULLSEYE AUX AFLD ARE HORNED LARKS. PHASE II IS FROM MAR-MAY AND SEPT-NOV. ALL OTHER PERIODS ARE PHASE I.
CAUTION: BEFORE CONDUCTING FLT NEAR THIS AREA, PILOTS ARE REQUIRED TO OBTAIN PRIOR APPROVAL BY CTC 306TH OSS AFLD MGR DSN 333-2526 OR C719-333-2526.
CAUTION: AFLD CONTAINS NSTD NATL INTERCOLLEGIATE FLYING ASSOC MRK.
RSTD: LTD EXCLUSIVELY TO 306 FTG ASGN ACFT ONLY. USAF FIRE DEPT ON DUTY ONLY DUR 306 FTG OPR. FIRE DEPT ON STN BY FIRST TKOF BASED ON FLT SKEDS. ALTHOUGH VFR SUPP INDICATES CLOSURE AT SS, A NOTAM COULD CLOSE AFLD PRIOR. OTHER REQ CTC AFLD MANAGER, DSN 333-2367 OR C719-333-2367. NO GND SVC OR FAC AVBL.

Instrument Procedures

There are no published instrument procedures at CO90.

Some nearby airports with instrument procedures:

KCOS - City of Colorado Springs Municipal Airport (19 nm W)
KPUB - Pueblo Memorial Airport (30 nm S)
1V6 - Fremont County Airport (43 nm SW)
KAPA - Centennial Airport (55 nm NW)
KLHX - La Junta Municipal Airport (56 nm SE)
 
Loc | Ops | Rwys | IFR | FBO | Links
Com | Nav | Svcs | Stats | Notes
Area around CO90 (USAF Academy Bullseye Auxiliary Airfield)
 
Road maps at: MapQuest Bing Google
 
Aerial photo
No photo
 
Sectional chart

 
Airport distance calculator
Flying to USAF Academy Bullseye Auxiliary Airfield? Find the distance to fly.

From to CO90

Sunrise and sunset
Times for 22-Feb-2019
 Local
(UTC-7)
 Zulu
(UTC)
Morning civil twilight06:1313:13
Sunrise06:4013:40
Sunset17:4100:41
Evening civil twilight18:0801:08

Current date and time
Zulu (UTC)  23-Feb-2019 05:07:43
Local (UTC-7)  22-Feb-2019 22:07:43
 
METAR
KFLY 
17nm NW 
230455Z AUTO 36014G20KT 1 1/4SM -SN OVC018 M06/M07 A2973 RMK AO2 T10571070
KCOS 
20nm W 
230454Z 33014KT 1 1/4SM -SN BR OVC020 M04/M06 A2973 RMK AO2 TWR VIS 2 SLP111 P0002 T10391061
KFCS 
23nm W 
230458Z 36019G28KT 2 3/4SM SN BR OVC021 M04/M05 A2971 RMK AO2A PK WND 35030/52 VIS 2 1/2V5 SLP118 P0000 T10371050 $
KAFF 
27nm NW 
230458Z AUTO 35010KT 1SM -SN BR OVC002 M06/M07 A2974 RMK AO2 OVC V BKN SLP115 P0000 T10581069 RVRNO $
KPUB 
30nm S 
230453Z 02018G30KT 10SM FEW016 BKN060 OVC070 02/M02 A2969 RMK AO2 PK WND 02030/0450 SLP063 T00171017
KMNH 
32nm NW 
230448Z AUTO 32005KT 3/4SM SN OVC004 M07/M08 A2977 RMK AO2 P0001
TAF
KCOS 
20nm W 
230428Z 2304/2324 35015KT 3SM -SN BR SCT010 OVC015 TEMPO 2305/2309 1SM -SN BR OVC010 FM230900 35028G38KT P6SM VCSH SCT020 OVC040 FM231600 35020G30KT P6SM SCT040 BKN090 FM232000 35012G22KT P6SM FEW100 SCT200
KFCS 
23nm W 
230423Z 2304/2403 36010G15KT 6000 -SN BKN015 620159 QNH2970INS BECMG 2307/2308 35015G25KT 6000 -SN BKN010 OVC020 620109 520009 QNH2963INS TEMPO 2308/2313 35025G35KT 560009 BECMG 2312/2313 34015G25KT 9999 NSW SCT020 BKN080 620806 520009 QNH2968INS TEMPO 2313/2315 34025G35KT 560009 BECMG 2315/2316 35012G18KT 9999 SCT080 QNH2976INS BECMG 2319/2320 34015G25KT 9999 SKC 520009 QNH2981INS TEMPO 2321/2403 34025G35KT 560009 TX06/2321Z TNM07/2312Z
NOTAMs
Click for the latest NOTAMs
NOTAMs are issued by the DoD/FAA and will open in a separate window not controlled by AirNav.

 

 
 

Would you like to see your business listed on this page?

 If your business provides an interesting product or service to pilots, flight crews, aircraft, or users of the USAF Academy Bullseye Auxiliary Airfield, you should consider listing it here.  To start the listing process, click on the button below
 
Add a business
 

Other Pages about USAF Academy Bullseye Auxiliary Airfield

Update a link
 
Copyright © AirNav, LLC. All rights reserved. Privacy Policy  Contact